EFHA

Halli Airport

Halli / Kuorevesi, Finland
METAR EFHA 172120Z AUTO 03004KT 2800 -SN OVC008 M07/M08 Q1022
Observed Flight Rules
Feb-17 @ 21:20 UTC (13 minutes ago) Instrument Flight Rules
Wind Visibility Clouds Conditions
30° at 4 knots 2,800 meters
  • Overcast at 800' AGL
  • Light Snow
Temperatures Readings
Current -7°C / 19°F
Dewpoint -8°C / 18°F
Humidity 93%
Altimeter 30.18" Hg
Pressure 1022 hPa
Elevation 145
METAR EFHA 172120Z AUTO 03004KT 2800 -SN OVC008 M07/M08 Q1022
Observed Flight Rules
Feb-17 @ 21:20 UTC
(13 minutes ago)
IFR
Wind Visibility
30° at 4 knots 2,800 meters
Clouds
  • Overcast at 800' AGL
Conditions
  • Light Snow
Temperature Dewpoint
-7°C / 19°F -8°C / 18°F
Humidity Altimeter Pressure
93% 30.18" Hg 1022 hPa